Time;durP1;ratioP1;P1;durP2;ratioP2;P2;SDS_P1;SDS_P2;PMS_P1;PMS_P2;Temp;Humidity;BMP_temperature;BMP_pressure;BME280_temperature;BME280_humidity;BME280_pressure;Samples;Min_cycle;Max_cycle;Signal;HPM_P1;HPM_P2
2022/06/29 00:01:54;;;;;;;2.87;1.57;;;;;;;19.96;54.08;99962.16;5017483;28;20222;-65
2022/06/29 00:04:20;;;;;;;1.57;1.30;;;;;;;19.96;53.11;99953.53;5011685;28;20595;-66
2022/06/29 00:06:45;;;;;;;1.50;1.30;;;;;;;19.94;53.46;99953.66;5013853;28;20190;-66
2022/06/29 00:09:11;;;;;;;1.97;1.30;;;;;;;19.90;54.48;99944.47;5027748;28;20179;-65
2022/06/29 00:11:36;;;;;;;2.03;1.40;;;;;;;19.93;53.36;99948.59;5014446;28;20707;-65
2022/06/29 00:14:01;;;;;;;2.00;1.23;;;;;;;20.03;54.38;99946.72;5016155;28;20186;-66
2022/06/29 00:16:27;;;;;;;2.70;1.40;;;;;;;20.05;54.58;99941.38;5012865;28;20210;-65
2022/06/29 00:18:52;;;;;;;2.40;1.27;;;;;;;20.04;54.08;99942.34;5012148;28;20252;-65
2022/06/29 00:21:17;;;;;;;2.70;1.60;;;;;;;20.04;53.41;99947.56;5011976;28;20226;-66
2022/06/29 00:23:43;;;;;;;1.30;1.20;;;;;;;19.99;52.76;99937.53;5018224;28;20554;-67
2022/06/29 00:26:08;;;;;;;16.00;1.53;;;;;;;20.06;52.60;99937.78;5008193;28;20175;-66
2022/06/29 00:28:33;;;;;;;1.20;1.10;;;;;;;20.07;54.07;99924.56;5002859;28;20694;-66
2022/06/29 00:30:58;;;;;;;2.30;1.30;;;;;;;20.16;53.88;99928.09;5009209;28;20226;-66
2022/06/29 00:33:24;;;;;;;1.97;1.33;;;;;;;20.17;53.94;99932.34;5008019;28;20191;-66
2022/06/29 00:35:49;;;;;;;2.47;1.67;;;;;;;20.20;54.27;99929.41;5026904;28;20760;-66
2022/06/29 00:38:15;;;;;;;2.40;1.67;;;;;;;20.19;54.37;99927.75;5027450;28;20254;-66
2022/06/29 00:40:40;;;;;;;6.23;1.57;;;;;;;20.18;53.93;99927.91;5006895;28;20263;-66
2022/06/29 00:43:05;;;;;;;1.97;1.33;;;;;;;20.20;54.05;99926.78;5022083;28;20175;-66
2022/06/29 00:45:31;;;;;;;2.87;1.30;;;;;;;20.18;54.67;99923.53;5022320;28;20245;-66
2022/06/29 00:47:56;;;;;;;3.47;1.47;;;;;;;20.15;54.71;99929.84;5012198;28;20653;-66
2022/06/29 00:50:22;;;;;;;5.10;1.47;;;;;;;20.03;55.28;99935.47;5019318;28;20223;-67
2022/06/29 00:52:47;;;;;;;2.07;1.47;;;;;;;20.12;55.66;99931.97;5027240;28;20245;-65
2022/06/29 00:55:18;;;;;;;1.10;1.00;;;;;;;20.12;56.37;99932.78;5010947;28;20661;-66
2022/06/29 00:57:44;;;;;;;5.10;1.50;;;;;;;20.20;55.71;99939.03;5011747;28;20614;-66
2022/06/29 01:00:11;;;;;;;3.67;1.50;;;;;;;20.22;57.40;99935.31;5001888;28;20212;-65
2022/06/29 01:02:37;;;;;;;4.87;1.37;;;;;;;20.22;58.13;99940.53;5010427;28;20181;-66
2022/06/29 01:05:04;;;;;;;3.00;1.30;;;;;;;20.21;58.71;99944.13;5012715;28;20182;-66
2022/06/29 01:07:32;;;;;;;3.87;1.80;;;;;;;20.21;57.48;99938.09;5010063;28;20175;-66
2022/06/29 01:09:59;;;;;;;2.00;1.43;;;;;;;20.21;58.06;99933.66;5011526;28;20187;-67
2022/06/29 01:12:24;;;;;;;2.80;1.30;;;;;;;20.20;57.67;99937.25;5017363;28;20730;-67
2022/06/29 01:14:51;;;;;;;3.93;1.27;;;;;;;20.20;56.56;99933.81;5010657;28;20273;-67
2022/06/29 01:17:17;;;;;;;4.07;1.57;;;;;;;20.25;56.12;99934.19;5011755;28;20262;-66
2022/06/29 01:19:43;;;;;;;4.50;1.53;;;;;;;20.31;55.95;99938.81;5009500;28;20277;-65
2022/06/29 01:22:11;;;;;;;2.83;1.30;;;;;;;20.48;51.86;99934.53;5015856;28;20376;-66
2022/06/29 01:24:37;;;;;;;1.87;1.27;;;;;;;20.46;52.15;99939.09;5011615;28;20249;-66
2022/06/29 01:27:03;;;;;;;4.17;1.30;;;;;;;20.52;51.94;99935.88;5011809;28;20214;-66
2022/06/29 01:29:29;;;;;;;1.80;1.50;;;;;;;20.56;50.90;99939.00;5011087;28;20337;-66
2022/06/29 01:31:56;;;;;;;1.87;1.27;;;;;;;20.52;52.51;99935.88;5014860;28;20617;-65
2022/06/29 01:34:25;;;;;;;3.00;1.63;;;;;;;20.56;51.21;99936.38;5012322;28;20218;-66
2022/06/29 01:36:51;;;;;;;1.97;1.50;;;;;;;20.54;50.56;99935.69;5011603;28;20193;-66
2022/06/29 01:39:16;;;;;;;8.13;1.90;;;;;;;20.59;50.95;99930.84;5026376;28;20182;-65
2022/06/29 01:41:42;;;;;;;2.27;1.70;;;;;;;20.68;50.38;99929.94;5014001;28;20238;-66
2022/06/29 01:44:07;;;;;;;1.33;1.20;;;;;;;20.68;51.33;99921.25;5012854;28;20601;-66
2022/06/29 01:46:33;;;;;;;1.83;1.30;;;;;;;20.67;50.47;99924.88;5011409;28;20965;-65
2022/06/29 01:48:58;;;;;;;4.30;1.50;;;;;;;20.69;49.41;99915.91;5009497;28;20179;-66
2022/06/29 01:51:23;;;;;;;2.00;1.40;;;;;;;20.75;50.44;99919.69;5011637;28;20229;-67
2022/06/29 01:53:49;;;;;;;1.90;1.30;;;;;;;20.76;50.69;99923.97;5024527;28;20244;-66
2022/06/29 01:56:14;;;;;;;1.57;1.47;;;;;;;20.74;50.64;99916.28;5011636;28;20638;-66
2022/06/29 01:58:40;;;;;;;3.07;1.70;;;;;;;20.71;53.19;99913.97;5010856;28;20181;-66
2022/06/29 02:01:05;;;;;;;1.67;1.50;;;;;;;20.70;52.98;99908.88;5009047;28;20226;-66
2022/06/29 02:03:30;;;;;;;1.87;1.60;;;;;;;20.64;54.07;99905.09;5018457;28;20241;-66
2022/06/29 02:05:56;;;;;;;3.20;1.37;;;;;;;20.59;55.34;99910.78;5013671;28;20190;-65
2022/06/29 02:08:21;;;;;;;2.57;1.40;;;;;;;20.58;55.16;99901.28;5026652;28;20199;-65
2022/06/29 02:10:47;;;;;;;4.07;1.13;;;;;;;20.60;57.21;99901.13;5018965;28;20234;-65
2022/06/29 02:13:13;;;;;;;1.73;1.30;;;;;;;20.58;58.87;99893.44;5020739;28;20213;-67
2022/06/29 02:15:38;;;;;;;1.90;1.57;;;;;;;20.54;59.84;99896.50;5010923;28;20588;-68
2022/06/29 02:18:03;;;;;;;1.67;1.50;;;;;;;20.49;59.15;99894.34;5026590;28;20274;-66
2022/06/29 02:20:29;;;;;;;3.27;2.50;;;;;;;20.50;59.14;99895.19;5018605;28;20234;-67
2022/06/29 02:22:54;;;;;;;2.63;1.00;;;;;;;20.46;59.54;99890.25;5022908;28;20201;-66
2022/06/29 02:25:20;;;;;;;4.50;1.80;;;;;;;20.46;57.68;99890.25;5011301;28;20623;-66
2022/06/29 02:27:45;;;;;;;2.17;1.77;;;;;;;20.40;56.35;99890.06;5010455;28;20186;-67
2022/06/29 02:30:13;;;;;;;2.07;1.60;;;;;;;20.38;57.37;99887.59;5016533;28;20194;-66
2022/06/29 02:35:22;;;;;;;4.53;1.93;;;;;;;20.28;57.25;99884.25;5014329;28;20186;-66
2022/06/29 02:37:47;;;;;;;6.37;1.80;;;;;;;20.28;57.71;99882.47;5014465;28;20187;-66
2022/06/29 02:40:13;;;;;;;4.20;2.00;;;;;;;20.29;58.14;99883.28;5005675;28;20203;-67
2022/06/29 02:42:38;;;;;;;2.17;1.97;;;;;;;20.28;57.39;99882.47;5013073;28;20183;-67
2022/06/29 02:45:04;;;;;;;2.37;1.57;;;;;;;20.25;57.99;99879.34;5040119;28;20265;-66
2022/06/29 02:47:29;;;;;;;3.43;1.97;;;;;;;20.18;58.03;99881.75;5029728;28;20175;-66
2022/06/29 02:49:54;;;;;;;1.80;1.57;;;;;;;20.23;58.17;99886.50;5029219;28;20591;-65
2022/06/29 02:52:20;;;;;;;3.83;1.60;;;;;;;20.25;59.99;99882.75;5019646;28;20653;-65
2022/06/29 02:54:45;;;;;;;4.83;1.60;;;;;;;20.27;60.35;99888.66;5016406;28;20277;-66
2022/06/29 02:57:10;;;;;;;2.73;1.77;;;;;;;20.27;59.93;99883.44;5029290;28;20183;-66
2022/06/29 02:59:37;;;;;;;2.13;1.80;;;;;;;20.25;60.37;99880.16;5013880;28;20187;-65
2022/06/29 03:02:02;;;;;;;2.83;2.00;;;;;;;20.23;60.63;99882.13;4995934;28;20226;-65
2022/06/29 03:04:28;;;;;;;2.10;1.60;;;;;;;20.17;62.40;99880.09;5014446;28;20244;-66
2022/06/29 03:06:53;;;;;;;1.97;1.77;;;;;;;20.23;64.40;99887.34;5016376;28;20209;-66
2022/06/29 03:09:18;;;;;;;4.03;2.10;;;;;;;20.26;63.76;99887.03;5013575;28;20182;-67
2022/06/29 03:11:44;;;;;;;1.90;1.70;;;;;;;20.23;62.75;99883.88;5016614;28;20232;-67
2022/06/29 03:14:09;;;;;;;4.23;1.80;;;;;;;20.20;61.72;99887.63;5012903;28;20187;-66
2022/06/29 03:16:34;;;;;;;2.37;1.70;;;;;;;20.22;61.63;99884.84;5015699;28;20735;-66
2022/06/29 03:19:00;;;;;;;2.00;1.70;;;;;;;20.24;62.44;99877.69;5017354;28;20235;-65
2022/06/29 03:21:25;;;;;;;2.77;1.60;;;;;;;20.24;64.02;99882.91;5021647;28;20579;-66
2022/06/29 03:23:50;;;;;;;2.53;1.97;;;;;;;20.26;62.06;99888.81;5018549;28;20270;-66
2022/06/29 03:26:17;;;;;;;2.20;1.40;;;;;;;20.22;61.76;99884.84;5012833;28;20190;-66
2022/06/29 03:28:43;;;;;;;3.73;1.90;;;;;;;20.22;61.81;99880.47;5004598;28;20229;-66
2022/06/29 03:31:08;;;;;;;4.03;1.80;;;;;;;20.25;61.14;99876.72;4991540;28;20241;-67
2022/06/29 03:33:33;;;;;;;3.70;1.60;;;;;;;20.30;61.07;99879.69;5009480;28;20353;-61
2022/06/29 03:35:59;;;;;;;2.63;1.93;;;;;;;20.41;59.78;99881.25;5028424;28;20183;-62
2022/06/29 03:38:24;;;;;;;3.50;2.00;;;;;;;20.49;59.34;99883.91;5011487;28;20175;-61
2022/06/29 03:40:49;;;;;;;4.97;2.07;;;;;;;20.58;59.13;99877.75;5008927;28;20240;-62
2022/06/29 03:43:15;;;;;;;3.07;1.80;;;;;;;20.58;58.71;99879.56;5024251;28;20182;-62
2022/06/29 03:45:41;;;;;;;2.83;2.27;;;;;;;20.53;58.80;99881.81;5021941;28;20175;-62
2022/06/29 03:48:06;;;;;;;5.93;1.80;;;;;;;20.49;55.97;99883.91;5013619;28;20236;-62
2022/06/29 03:50:32;;;;;;;1.87;1.77;;;;;;;20.56;54.68;99873.66;5006796;28;20232;-62
2022/06/29 03:52:57;;;;;;;2.87;1.90;;;;;;;20.47;53.91;99859.75;5028089;28;20182;-62
2022/06/29 03:55:22;;;;;;;4.67;1.97;;;;;;;20.65;53.35;99870.13;5013673;28;20224;-61
2022/06/29 03:57:48;;;;;;;4.03;1.83;;;;;;;20.72;54.58;99868.56;5013062;28;20183;-61
2022/06/29 04:00:14;;;;;;;1.93;1.73;;;;;;;20.86;51.34;99869.75;5003903;28;20188;-62
2022/06/29 04:02:40;;;;;;;1.93;1.60;;;;;;;20.92;53.92;99869.13;5027217;28;20594;-61
2022/06/29 04:05:05;;;;;;;1.77;1.67;;;;;;;20.66;54.47;99868.34;5014483;28;20183;-62
2022/06/29 04:07:31;;;;;;;3.63;1.97;;;;;;;20.63;54.70;99877.31;5013718;28;20547;-62
2022/06/29 04:09:59;;;;;;;2.00;1.80;;;;;;;20.67;55.62;99877.81;5012697;28;20270;-62
2022/06/29 04:12:27;;;;;;;2.10;1.90;;;;;;;20.80;57.79;99880.84;5001827;28;20226;-62
2022/06/29 04:14:53;;;;;;;4.90;2.40;;;;;;;20.83;59.29;99885.78;5028413;28;20174;-62
2022/06/29 04:17:18;;;;;;;2.20;2.00;;;;;;;20.75;59.71;99883.09;5028188;28;20228;-62
2022/06/29 04:19:43;;;;;;;2.50;2.10;;;;;;;20.74;60.71;99869.22;5027206;28;20229;-63
2022/06/29 04:22:08;;;;;;;3.73;2.07;;;;;;;20.82;59.45;99876.28;5018058;28;20716;-62
2022/06/29 04:24:34;;;;;;;3.00;2.00;;;;;;;20.90;58.29;99872.88;5012600;28;20171;-64
2022/06/29 04:26:59;;;;;;;2.77;2.23;;;;;;;20.83;58.77;99864.06;5027745;28;20553;-61
2022/06/29 04:29:24;;;;;;;2.27;2.07;;;;;;;20.89;57.59;99863.44;5012422;28;20182;-62
2022/06/29 04:31:50;;;;;;;2.90;2.20;;;;;;;21.03;59.16;99857.59;5016137;28;20256;-62
2022/06/29 04:34:15;;;;;;;5.60;1.87;;;;;;;21.18;60.29;99862.22;5011248;28;20569;-60
2022/06/29 04:36:40;;;;;;;5.50;2.10;;;;;;;21.28;60.29;99860.28;5011737;28;20626;-61
2022/06/29 04:39:05;;;;;;;2.60;1.90;;;;;;;21.27;60.50;99863.88;5027412;28;20233;-61
2022/06/29 04:41:31;;;;;;;2.13;1.93;;;;;;;21.36;60.86;99859.47;5013389;28;20661;-62
2022/06/29 04:43:56;;;;;;;5.30;2.40;;;;;;;21.40;58.51;99863.44;5023594;28;20266;-60
2022/06/29 04:46:22;;;;;;;3.50;2.10;;;;;;;21.41;58.54;99863.25;5015722;28;20204;-61
2022/06/29 04:48:50;;;;;;;2.30;2.10;;;;;;;21.33;52.05;99863.25;5012082;28;20591;-61
2022/06/29 04:51:18;;;;;;;2.83;2.10;;;;;;;21.26;51.93;99868.28;5012070;28;20585;-61
2022/06/29 04:53:45;;;;;;;2.50;2.10;;;;;;;21.28;51.23;99866.34;5019747;28;20177;-62
2022/06/29 04:56:11;;;;;;;2.97;2.43;;;;;;;21.39;51.28;99865.22;5012148;28;20251;-61
2022/06/29 04:58:37;;;;;;;2.57;2.30;;;;;;;21.29;50.74;99861.94;5011068;28;20654;-61
2022/06/29 05:01:02;;;;;;;2.80;2.20;;;;;;;21.29;50.79;99860.13;5009776;28;20257;-62
2022/06/29 05:03:28;;;;;;;3.83;2.00;;;;;;;21.24;50.99;99851.13;5011070;28;20282;-61
2022/06/29 05:05:53;;;;;;;2.90;2.20;;;;;;;21.31;50.80;99861.75;5014416;28;20219;-62
2022/06/29 05:08:18;;;;;;;3.10;2.30;;;;;;;21.33;50.95;99857.19;5027687;28;20187;-61
2022/06/29 05:10:44;;;;;;;2.13;1.80;;;;;;;21.49;50.94;99862.47;5007141;28;20249;-62
2022/06/29 05:13:10;;;;;;;2.80;1.93;;;;;;;21.43;50.58;99863.94;5022627;28;20194;-62
2022/06/29 05:15:38;;;;;;;3.43;2.00;;;;;;;21.52;50.24;99862.16;5027166;28;20634;-61
2022/06/29 05:18:05;;;;;;;2.20;2.00;;;;;;;21.69;50.58;99857.75;5011198;28;20197;-62
2022/06/29 05:20:30;;;;;;;5.33;2.60;;;;;;;21.53;50.52;99857.72;5004471;28;20242;-67
2022/06/29 05:22:55;;;;;;;3.50;2.40;;;;;;;21.90;49.29;99851.25;5006102;28;20246;-61
2022/06/29 05:25:21;;;;;;;3.53;2.30;;;;;;;22.03;47.92;99848.97;5012120;28;20194;-62
2022/06/29 05:27:47;;;;;;;3.20;2.50;;;;;;;22.25;47.69;99844.84;5011754;28;20646;-61
2022/06/29 05:30:13;;;;;;;7.93;2.97;;;;;;;22.28;47.29;99841.06;5018025;28;20630;-61
2022/06/29 05:32:38;;;;;;;3.97;2.80;;;;;;;22.22;47.43;99849.59;5010642;28;20237;-62
2022/06/29 05:35:04;;;;;;;5.00;2.10;;;;;;;22.35;47.51;99846.44;5012181;28;20204;-62
2022/06/29 05:37:30;;;;;;;3.20;2.30;;;;;;;22.43;46.67;99849.09;5011439;28;20544;-64
2022/06/29 05:39:55;;;;;;;5.53;2.50;;;;;;;22.49;46.77;99844.97;5025410;28;20178;-60
2022/06/29 05:42:21;;;;;;;9.63;4.47;;;;;;;22.42;47.09;99846.66;5016050;28;20740;-61
2022/06/29 05:44:46;;;;;;;4.57;2.60;;;;;;;22.40;46.72;99841.56;5012816;28;20186;-61
2022/06/29 05:47:14;;;;;;;2.43;2.27;;;;;;;22.47;46.04;99850.38;5009268;28;20206;-62
2022/06/29 05:49:39;;;;;;;2.83;2.33;;;;;;;22.59;46.35;99847.41;5006259;28;20262;-62
2022/06/29 05:52:04;;;;;;;4.20;2.77;;;;;;;22.77;46.01;99847.19;5002981;28;20639;-62
2022/06/29 05:54:30;;;;;;;2.57;2.23;;;;;;;22.29;46.84;99847.13;5010952;28;20695;-60
2022/06/29 05:56:55;;;;;;;4.33;2.53;;;;;;;22.50;46.81;99849.22;5009973;28;20589;-60
2022/06/29 05:59:20;;;;;;;3.83;2.50;;;;;;;22.76;46.93;99853.41;5010342;28;20189;-61
2022/06/29 06:01:46;;;;;;;3.60;2.73;;;;;;;22.93;46.12;99848.94;5014220;28;20811;-61
2022/06/29 06:04:11;;;;;;;5.00;2.63;;;;;;;23.06;45.71;99846.59;5013307;28;20657;-61
2022/06/29 06:06:36;;;;;;;2.80;2.60;;;;;;;23.37;44.87;99843.16;5008997;28;20261;-60
2022/06/29 06:09:02;;;;;;;5.07;3.03;;;;;;;23.46;44.47;99841.31;5006765;28;20185;-60
2022/06/29 06:11:27;;;;;;;4.60;2.90;;;;;;;23.64;44.12;99848.88;5006335;28;20586;-60
2022/06/29 06:13:52;;;;;;;3.10;2.80;;;;;;;23.51;44.42;99844.22;5019650;28;20190;-61
2022/06/29 06:16:18;;;;;;;4.70;2.70;;;;;;;23.49;44.73;99848.81;5013314;28;20179;-61
2022/06/29 06:18:43;;;;;;;4.73;2.97;;;;;;;23.30;44.66;99843.03;5011772;28;20705;-61
2022/06/29 06:21:08;;;;;;;4.27;2.80;;;;;;;23.22;45.34;99856.22;5009517;28;20235;-62
2022/06/29 06:23:33;;;;;;;4.63;2.70;;;;;;;23.01;45.67;99846.28;5020042;28;20179;-66
2022/06/29 06:25:59;;;;;;;3.40;3.20;;;;;;;23.09;45.18;99846.22;5025448;28;20214;-68
2022/06/29 06:28:24;;;;;;;7.07;2.97;;;;;;;23.09;44.99;99859.34;5007453;28;20182;-66
2022/06/29 06:30:50;;;;;;;5.83;2.70;;;;;;;23.29;45.41;99856.34;5002528;28;20233;-67
2022/06/29 06:33:15;;;;;;;3.30;2.70;;;;;;;23.49;45.02;99848.81;5007938;28;20207;-65
2022/06/29 06:35:40;;;;;;;5.97;3.50;;;;;;;23.33;45.81;99847.94;5030271;28;20241;-68
2022/06/29 06:38:06;;;;;;;4.00;3.10;;;;;;;23.48;44.67;99842.78;5027832;28;20186;-67
2022/06/29 06:43:15;;;;;;;4.23;3.00;;;;;;;23.29;45.48;99851.88;5020122;28;20274;-67
2022/06/29 06:45:42;;;;;;;3.23;2.80;;;;;;;23.48;45.47;99855.06;5024454;28;20206;-67
2022/06/29 06:48:07;;;;;;;6.03;2.90;;;;;;;23.46;44.37;99852.63;5012758;28;20186;-65
2022/06/29 06:50:33;;;;;;;5.23;3.63;;;;;;;23.53;45.03;99856.19;5005230;28;20226;-65
2022/06/29 06:52:58;;;;;;;7.00;3.10;;;;;;;23.49;45.37;99862.78;5010761;28;20244;-66
2022/06/29 06:55:23;;;;;;;5.23;3.27;;;;;;;23.42;45.13;99861.00;5015138;28;20281;-65
2022/06/29 06:57:48;;;;;;;5.73;3.73;;;;;;;23.50;45.17;99861.75;5008884;28;20179;-67
2022/06/29 07:00:14;;;;;;;4.23;2.77;;;;;;;23.42;45.23;99864.47;4991613;28;20240;-67
2022/06/29 07:02:40;;;;;;;3.47;3.10;;;;;;;23.62;45.27;99858.75;5010509;28;20684;-69
2022/06/29 07:05:06;;;;;;;4.60;2.97;;;;;;;23.52;44.97;99870.28;5009491;28;20191;-66
2022/06/29 07:07:31;;;;;;;5.43;3.03;;;;;;;23.80;45.04;99869.78;4997059;28;20186;-67
2022/06/29 07:09:56;;;;;;;3.60;3.07;;;;;;;23.60;45.40;99860.72;4994469;28;20218;-66
2022/06/29 07:12:22;;;;;;;3.40;3.10;;;;;;;23.79;44.87;99865.53;5002337;28;20225;-66
2022/06/29 07:14:47;;;;;;;3.30;3.00;;;;;;;24.02;44.63;99867.34;5011701;28;20689;-66
2022/06/29 07:17:13;;;;;;;4.43;3.00;;;;;;;24.31;44.23;99865.75;5004267;28;20250;-67
2022/06/29 07:19:38;;;;;;;3.80;3.30;;;;;;;24.20;44.21;99867.03;5011786;28;20230;-68
2022/06/29 07:22:04;;;;;;;3.83;3.50;;;;;;;24.02;44.96;99864.69;5019310;28;20249;-68
2022/06/29 07:24:29;;;;;;;4.40;3.60;;;;;;;23.81;44.91;99865.34;5010423;28;20187;-66
2022/06/29 07:26:56;;;;;;;3.77;3.47;;;;;;;24.73;43.58;99866.16;5013076;28;20171;-66
2022/06/29 07:29:22;;;;;;;6.50;3.23;;;;;;;25.34;41.77;99871.16;5010751;28;20188;-67
2022/06/29 07:31:48;;;;;;;5.28;3.20;;;;;;;25.21;40.90;99866.53;4962653;28;20249;-64
2022/06/29 07:34:13;;;;;;;5.13;2.78;;;;;;;26.00;40.19;99864.06;5012338;28;20229;-65
2022/06/29 07:36:38;;;;;;;3.35;3.03;;;;;;;26.75;38.17;99859.13;5029317;28;20547;-66
2022/06/29 07:39:03;;;;;;;7.40;3.00;;;;;;;26.75;37.88;99856.50;5029477;28;20197;-67
2022/06/29 07:41:29;;;;;;;4.20;2.78;;;;;;;26.79;38.75;99855.09;5003536;28;20337;-69
2022/06/29 07:43:55;;;;;;;6.35;3.05;;;;;;;27.22;37.14;99852.19;5022216;28;20182;-68
2022/06/29 07:46:21;;;;;;;4.60;3.30;;;;;;;27.18;37.07;99850.97;5010979;28;20551;-67
2022/06/29 07:48:46;;;;;;;3.10;2.80;;;;;;;28.36;35.24;99840.09;4995613;28;20187;-64
2022/06/29 07:51:11;;;;;;;5.20;3.17;;;;;;;29.61;33.10;99850.31;5012910;28;20236;-73
2022/06/29 07:53:37;;;;;;;6.10;2.95;;;;;;;30.18;32.61;99845.97;5033270;28;20178;-72
2022/06/29 07:59:24;;;;;;;6.03;3.80;;;;;;;30.64;31.28;99836.75;5005413;28;20577;-72
2022/06/29 08:01:49;;;;;;;4.82;3.38;;;;;;;31.22;31.22;99840.69;5006323;28;20234;-70
2022/06/29 08:04:15;;;;;;;6.57;3.30;;;;;;;30.62;31.30;99840.66;5007404;28;20187;-74
2022/06/29 08:06:40;;;;;;;3.72;3.13;;;;;;;31.27;30.17;99841.88;5015308;28;20181;-73
2022/06/29 08:09:05;;;;;;;5.85;3.25;;;;;;;30.43;31.05;99849.38;5011065;28;20189;-72
2022/06/29 08:11:31;;;;;;;3.28;3.00;;;;;;;29.75;32.96;99845.72;4992835;28;20649;-71
2022/06/29 08:13:57;;;;;;;3.53;3.05;;;;;;;29.21;33.95;99841.78;5015971;28;20182;-69
2022/06/29 08:16:23;;;;;;;3.90;3.50;;;;;;;28.53;35.35;99837.78;5028224;28;20187;-69
2022/06/29 08:18:48;;;;;;;4.13;3.30;;;;;;;28.74;34.89;99840.19;4996566;28;20203;-69
2022/06/29 08:21:13;;;;;;;9.05;3.47;;;;;;;29.10;33.77;99836.16;4996746;28;20626;-70
2022/06/29 08:23:39;;;;;;;5.03;3.17;;;;;;;29.44;33.37;99834.13;5010709;28;20178;-68
2022/06/29 08:26:04;;;;;;;5.72;3.33;;;;;;;29.19;33.59;99838.53;5018914;28;20182;-69
2022/06/29 08:28:29;;;;;;;3.63;2.88;;;;;;;29.43;34.00;99835.16;5002647;28;20274;-69
2022/06/29 08:30:55;;;;;;;4.30;3.40;;;;;;;29.51;33.79;99833.25;5000732;28;20253;-72
2022/06/29 08:33:23;;;;;;;7.20;3.10;;;;;;;30.27;32.76;99831.41;5010977;28;20292;-71
2022/06/29 08:35:50;;;;;;;4.15;3.63;;;;;;;32.07;29.33;99826.50;5010193;28;20218;-71
2022/06/29 08:42:20;;;;;;;5.78;3.60;;;;;;;33.40;28.00;99824.81;4999766;28;20244;-74
2022/06/29 08:44:47;;;;;;;4.43;3.28;;;;;;;34.07;27.80;99831.16;4998387;28;20654;-73
2022/06/29 08:47:13;;;;;;;6.80;3.70;;;;;;;32.28;29.31;99833.88;5001270;28;20175;-72
2022/06/29 08:49:39;;;;;;;5.53;2.92;;;;;;;32.60;29.93;99833.47;5026857;28;20602;-71
2022/06/29 08:52:06;;;;;;;6.40;3.47;;;;;;;31.35;31.07;99838.88;5017179;28;20241;-71
2022/06/29 08:54:36;;;;;;;8.60;3.55;;;;;;;30.66;32.35;99839.16;5013146;28;20184;-70
2022/06/29 08:57:03;;;;;;;4.45;3.47;;;;;;;29.70;34.02;99840.25;5009012;28;20643;-69
2022/06/29 08:59:29;;;;;;;6.30;3.47;;;;;;;29.52;35.79;99842.84;5032182;28;20297;-69
2022/06/29 09:01:54;;;;;;;4.10;3.40;;;;;;;29.78;34.49;99839.16;5015687;28;20233;-71
2022/06/29 09:04:20;;;;;;;3.97;3.67;;;;;;;31.62;31.54;99838.44;5013571;28;20188;-70
2022/06/29 09:06:51;;;;;;;5.85;3.92;;;;;;;32.04;30.43;99841.06;5014150;28;20265;-71
2022/06/29 09:09:17;;;;;;;6.13;3.63;;;;;;;32.19;30.20;99837.94;5011472;28;20287;-73
2022/06/29 09:11:46;;;;;;;3.65;3.35;;;;;;;32.13;31.16;99838.88;5010542;28;20758;-70
2022/06/29 09:14:19;;;;;;;8.65;4.28;;;;;;;31.63;31.34;99835.59;5011846;28;20178;-70
2022/06/29 09:16:53;;;;;;;4.93;3.33;;;;;;;31.32;31.49;99840.16;5010686;28;20187;-72
2022/06/29 09:19:22;;;;;;;3.63;3.33;;;;;;;31.60;31.53;99829.91;5011331;28;20324;-71
2022/06/29 09:21:52;;;;;;;4.03;3.22;;;;;;;31.79;31.65;99828.00;5014603;28;20233;-71
2022/06/29 09:24:20;;;;;;;5.35;3.80;;;;;;;30.62;33.49;99827.38;5012998;28;20179;-73
2022/06/29 09:26:52;;;;;;;7.78;3.75;;;;;;;30.83;33.20;99823.44;5011464;28;20187;-70
2022/06/29 09:29:26;;;;;;;5.57;3.10;;;;;;;31.43;32.30;99827.13;5010781;28;20182;-71
2022/06/29 09:32:06;;;;;;;5.70;3.45;;;;;;;31.92;31.02;99821.66;5019864;28;20312;-68
2022/06/29 09:34:43;;;;;;;5.05;3.30;;;;;;;32.75;30.24;99824.19;5010115;28;20286;-71
2022/06/29 09:37:19;;;;;;;4.63;3.90;;;;;;;33.98;28.12;99827.31;5026701;28;20186;-71
2022/06/29 09:39:52;;;;;;;5.32;3.90;;;;;;;35.57;26.96;99836.25;5010991;28;20232;-70
2022/06/29 09:42:24;;;;;;;5.80;3.58;;;;;;;34.72;27.42;99826.91;5016549;28;20237;-71
2022/06/29 09:44:50;;;;;;;7.15;4.03;;;;;;;34.97;28.27;99830.09;5020847;28;20716;-73
2022/06/29 09:47:20;;;;;;;8.63;4.25;;;;;;;33.72;28.68;99832.25;5026630;28;20183;-71
2022/06/29 09:49:48;;;;;;;10.85;4.22;;;;;;;34.99;27.93;99820.78;5009234;28;20183;-71
2022/06/29 09:52:17;;;;;;;4.70;3.75;;;;;;;33.83;27.58;99826.03;5017092;28;20238;-71
2022/06/29 09:54:56;;;;;;;4.53;4.13;;;;;;;32.05;30.65;99825.91;5013175;28;20197;-71
2022/06/29 09:57:27;;;;;;;5.97;3.97;;;;;;;33.14;30.89;99814.53;5026418;28;20286;-73
2022/06/29 10:02:53;;;;;;;5.25;4.03;;;;;;;31.87;31.95;99809.03;4999982;28;20280;-70
2022/06/29 10:05:21;;;;;;;4.93;3.70;;;;;;;33.25;30.22;99804.03;5009014;28;20240;-70
2022/06/29 10:24:37;;;;;;;4.75;3.92;;;;;;;34.72;28.74;99807.38;4993213;28;20265;-74
2022/06/29 10:27:06;;;;;;;5.38;4.22;;;;;;;32.85;30.75;99803.06;5009615;28;20249;-73
2022/06/29 10:29:32;;;;;;;5.20;4.65;;;;;;;31.89;32.09;99795.50;5003135;28;20175;-68
2022/06/29 10:31:59;;;;;;;5.75;5.22;;;;;;;32.22;32.37;99799.44;5014436;28;20288;-74
2022/06/29 10:34:28;;;;;;;5.60;4.72;;;;;;;31.33;33.26;99791.28;5002844;28;20213;-75
2022/06/29 10:37:02;;;;;;;6.20;4.60;;;;;;;31.68;33.09;99785.22;5002773;28;20278;-70
2022/06/29 10:39:48;;;;;;;9.00;4.97;;;;;;;31.00;33.57;99789.91;5001061;28;20760;-72
2022/06/29 10:45:14;;;;;;;5.28;4.60;;;;;;;31.38;34.32;99785.28;4989525;28;20199;-69
2022/06/29 10:47:43;;;;;;;5.00;4.63;;;;;;;30.41;34.98;99787.75;4988405;28;20674;-68
2022/06/29 10:50:22;;;;;;;5.32;4.93;;;;;;;29.74;36.15;99783.13;4980537;28;20195;-70
2022/06/29 10:52:48;;;;;;;5.18;4.78;;;;;;;29.55;36.96;99778.84;5024973;28;20639;-68
2022/06/29 10:55:15;;;;;;;6.53;5.22;;;;;;;29.55;36.94;99774.34;5006214;28;20179;-68
2022/06/29 10:57:42;;;;;;;5.43;4.93;;;;;;;29.75;37.47;99774.16;4992808;28;20271;-70
2022/06/29 11:00:14;;;;;;;5.22;4.82;;;;;;;29.45;37.35;99772.16;4987566;28;20194;-70
2022/06/29 11:02:42;;;;;;;5.53;5.13;;;;;;;29.22;38.22;99772.72;5003644;28;20630;-69
2022/06/29 11:05:08;;;;;;;4.65;4.25;;;;;;;29.63;38.47;99771.41;4996094;28;20725;-68
2022/06/29 11:13:02;;;;;;;7.07;4.70;;;;;;;30.19;37.59;99758.25;5013389;28;20193;-70
2022/06/29 11:15:42;;;;;;;7.32;4.15;;;;;;;30.45;36.76;99761.59;5005223;28;20600;-75
2022/06/29 11:18:29;;;;;;;5.65;5.00;;;;;;;30.42;36.74;99757.56;5008492;28;20650;-75
2022/06/29 11:21:02;;;;;;;6.40;5.03;;;;;;;30.72;36.21;99758.63;5009599;28;20237;-73
2022/06/29 11:23:33;;;;;;;5.63;4.97;;;;;;;30.51;36.23;99760.72;5011503;28;20187;-72
2022/06/29 11:25:59;;;;;;;6.13;5.18;;;;;;;30.65;36.12;99753.44;5004223;28;20215;-72
2022/06/29 11:28:28;;;;;;;7.72;4.40;;;;;;;30.38;35.49;99756.38;5010978;28;20490;-75
2022/06/29 11:31:12;;;;;;;6.00;4.28;;;;;;;30.31;36.51;99757.50;4975046;28;20233;-73
2022/06/29 11:33:49;;;;;;;5.85;4.25;;;;;;;30.75;35.69;99755.56;5001097;28;20219;-69
2022/06/29 11:36:16;;;;;;;4.13;3.83;;;;;;;30.78;34.91;99759.59;5009081;28;20183;-70
2022/06/29 11:38:43;;;;;;;6.72;4.38;;;;;;;30.74;36.38;99760.03;5010552;28;20189;-71
2022/06/29 11:41:14;;;;;;;6.75;4.25;;;;;;;31.15;36.03;99748.88;5009090;28;20604;-69
2022/06/29 11:43:40;;;;;;;4.88;4.38;;;;;;;31.43;35.49;99750.84;5010530;28;20197;-73
2022/06/29 11:46:17;;;;;;;5.20;4.50;;;;;;;31.80;35.83;99745.31;5012861;28;20202;-71
2022/06/29 11:49:33;;;;;;;6.10;4.60;;;;;;;31.77;34.29;99751.13;5027957;28;20178;-73
2022/06/29 11:51:34;;;;;;;5.22;4.55;;;;;;;31.61;35.67;99746.47;5003633;28;20275;-73
2022/06/29 11:54:06;;;;;;;4.88;4.18;;;;;;;31.37;35.51;99744.63;5013704;28;20190;-73
2022/06/29 11:56:32;;;;;;;7.47;4.18;;;;;;;31.15;35.16;99738.25;5009216;28;20182;-73
2022/06/29 11:59:03;;;;;;;5.68;4.22;;;;;;;31.48;34.39;99744.84;5008879;28;20274;-74
2022/06/29 12:01:28;;;;;;;5.03;4.55;;;;;;;31.52;34.80;99740.72;5013251;28;20226;-72
2022/06/29 12:04:00;;;;;;;10.52;4.53;;;;;;;31.26;35.89;99744.59;5015444;28;20194;-74
2022/06/29 12:06:28;;;;;;;4.72;4.32;;;;;;;30.29;35.19;99735.69;5012788;28;20182;-73
2022/06/29 12:08:55;;;;;;;8.57;4.30;;;;;;;28.91;38.36;99739.13;4999931;28;20274;-71
2022/06/29 12:11:21;;;;;;;5.32;4.32;;;;;;;29.46;38.04;99726.13;5012668;28;20576;-71
2022/06/29 12:13:46;;;;;;;4.70;4.30;;;;;;;30.16;37.64;99723.41;5010807;28;20211;-72